Terminal Aerodrome Forecast
Issued by NWS Wilmington, OH

Current Version | Previous Version | Graphics & Text | Print | Product List | Glossary On
Versions: 1 2 3 4 5 6 7 8 9 10 11 12 13 14 15 16 17 18 19 20 21 22 23 24 25 26 27 28 29 30
000
FTUS41 KILN 132343
TAFILN
TAF
KILN 132343Z 1400/1424 06008KT P6SM OVC120
     FM140100 07007KT P6SM VCSH SCT050 OVC090
      TEMPO 1404/1407 -FZRA
     FM140700 07005KT 5SM BR VCSH BKN008 OVC012
     FM141500 07004KT 5SM -FZRA BR OVC008
     FM141600 23004KT 5SM BR VCSH OVC012
     FM142200 32004KT P6SM OVC012=

USA.gov is the U.S. government's official web portal to all federal, state and local government web resources and services.